Terminal Aerodrome Forecast
Issued by NWS

Home | Current Version | Previous Version | Text Only | Print | Product List | Glossary On
Versions: 1 2 3 4 5 6 7 8 9 10 11 12 13 14 15 16 17 18 19 20 21 22 23 24 25 26 27 28 29
000
FTUS45 KLKN 221100
TAFELY
TAF
KELY 221120Z 2212/2312 21014KT P6SM SCT100
     FM221800 20016G26KT P6SM VCTS OVC080CB
      TEMPO 2219/2223 VRB20G40KT 4SM TSRA
     FM230000 20010G20KT P6SM VCTS OVC070CB
     FM230300 20009KT P6SM -SHRA OVC090
     FM230900 18008KT P6SM SKC=

USA.gov is the U.S. government's official web portal to all federal, state and local government web resources and services.